createdAt,value
2023-11-07T00:00:35.114Z,6.56
2023-11-07T00:01:34.925Z,6.56
2023-11-07T00:02:35.266Z,6.51
2023-11-07T00:03:35.121Z,6.43
2023-11-07T00:04:34.891Z,6.31
2023-11-07T00:05:35.101Z,6.30
2023-11-07T00:06:34.894Z,6.28
2023-11-07T00:07:35.056Z,6.27
2023-11-07T00:08:34.868Z,6.28
2023-11-07T00:09:35.052Z,6.28
2023-11-07T00:10:34.832Z,6.30
2023-11-07T00:11:35.025Z,6.36
2023-11-07T00:12:34.833Z,6.36
2023-11-07T00:13:36.064Z,6.37
2023-11-07T00:14:34.808Z,6.38
2023-11-07T00:15:35.187Z,6.43
2023-11-07T00:16:34.764Z,6.44
2023-11-07T00:17:35.109Z,6.46
2023-11-07T00:18:34.890Z,6.41
2023-11-07T00:19:34.907Z,6.43
2023-11-07T00:20:34.720Z,6.41
2023-11-07T00:21:34.930Z,6.38
2023-11-07T00:22:34.696Z,6.38
2023-11-07T00:23:34.938Z,6.37
2023-11-07T00:24:34.715Z,6.34
2023-11-07T00:25:34.840Z,6.40
2023-11-07T00:26:40.827Z,6.38
2023-11-07T00:30:36.440Z,6.44
2023-11-07T00:31:37.325Z,6.44
2023-11-07T00:32:37.592Z,6.43
2023-11-07T00:33:37.462Z,6.41
2023-11-07T00:34:37.498Z,6.43
2023-11-07T00:35:37.376Z,6.46
2023-11-07T00:36:37.282Z,6.46
2023-11-07T00:37:37.245Z,6.44
2023-11-07T00:38:37.293Z,6.40
2023-11-07T00:39:37.225Z,6.40
2023-11-07T00:40:37.383Z,6.38
2023-11-07T00:41:37.229Z,6.37
2023-11-07T00:42:37.301Z,6.36
2023-11-07T00:43:37.173Z,6.37
2023-11-07T00:44:37.334Z,6.34
2023-11-07T00:45:37.163Z,6.36
2023-11-07T00:46:37.289Z,6.33
2023-11-07T00:47:37.220Z,6.36
2023-11-07T00:48:37.408Z,6.38
2023-11-07T00:49:37.093Z,6.41
2023-11-07T00:50:37.283Z,6.41
2023-11-07T00:51:37.118Z,6.46
2023-11-07T00:52:37.078Z,6.48
2023-11-07T00:53:37.095Z,6.49
2023-11-07T00:54:37.086Z,6.44
2023-11-07T00:55:37.112Z,6.48
2023-11-07T00:56:37.018Z,6.51
2023-11-07T00:57:37.125Z,6.48
2023-11-07T00:58:36.958Z,6.44
2023-11-07T00:59:37.222Z,6.41
2023-11-07T01:00:36.942Z,6.38
2023-11-07T01:01:36.953Z,6.36
2023-11-07T01:02:37.000Z,6.30
2023-11-07T01:03:37.100Z,6.25
2023-11-07T01:04:36.956Z,6.21
2023-11-07T01:05:37.168Z,6.21
2023-11-07T01:06:36.941Z,6.21
2023-11-07T01:07:37.004Z,6.22
2023-11-07T01:08:36.853Z,6.28
2023-11-07T01:09:37.052Z,6.30
2023-11-07T01:10:36.818Z,6.27
2023-11-07T01:11:37.029Z,6.34
2023-11-07T01:12:36.786Z,6.40
2023-11-07T01:13:36.882Z,6.41
2023-11-07T01:14:36.819Z,6.43
2023-11-07T01:15:36.896Z,6.43
2023-11-07T01:16:36.835Z,6.41
2023-11-07T01:17:36.818Z,6.43
2023-11-07T01:18:36.914Z,6.38
2023-11-07T01:19:36.733Z,6.40
2023-11-07T01:20:36.892Z,6.37
2023-11-07T01:21:36.893Z,6.36
2023-11-07T01:22:36.647Z,6.28
2023-11-07T01:23:36.750Z,6.22
2023-11-07T01:24:36.622Z,6.15
2023-11-07T01:25:36.792Z,6.14
2023-11-07T01:26:36.689Z,6.08
2023-11-07T01:27:36.738Z,6.01
2023-11-07T01:28:36.591Z,5.96
2023-11-07T01:29:36.770Z,5.89
2023-11-07T01:30:36.570Z,5.82
2023-11-07T01:31:36.755Z,5.78
2023-11-07T01:32:36.622Z,5.71
2023-11-07T01:33:36.781Z,5.60
2023-11-07T01:34:36.650Z,5.49
2023-11-07T01:35:36.521Z,5.43
2023-11-07T01:36:36.668Z,5.35
2023-11-07T01:37:36.692Z,5.24
2023-11-07T01:38:36.462Z,5.15
2023-11-07T01:39:36.550Z,5.04
2023-11-07T01:40:36.435Z,4.97
2023-11-07T01:41:36.532Z,4.91
2023-11-07T01:42:36.552Z,4.82
2023-11-07T01:43:41.482Z,4.70
2023-11-07T01:44:36.433Z,4.62
2023-11-07T01:45:37.236Z,4.51
2023-11-07T01:46:36.355Z,4.51
2023-11-07T01:47:36.670Z,4.50
2023-11-07T01:48:36.472Z,4.54
2023-11-07T01:49:36.424Z,4.63
2023-11-07T01:50:36.351Z,4.66
2023-11-07T01:51:36.441Z,4.58
2023-11-07T01:52:36.299Z,4.52
2023-11-07T01:53:36.468Z,4.44
2023-11-07T01:54:36.252Z,4.36
2023-11-07T01:55:36.487Z,4.26
2023-11-07T01:56:36.282Z,4.18
2023-11-07T01:57:36.504Z,4.12
2023-11-07T01:58:36.203Z,4.09
2023-11-07T01:59:36.390Z,4.11
2023-11-07T02:00:36.175Z,4.02
2023-11-07T02:01:36.866Z,4.00
2023-11-07T02:02:36.193Z,3.98
2023-11-07T02:03:36.372Z,3.93
2023-11-07T02:04:36.232Z,3.84
2023-11-07T02:05:36.281Z,3.78
2023-11-07T02:06:36.079Z,3.72
2023-11-07T02:07:36.254Z,3.70
2023-11-07T02:08:36.141Z,3.69
2023-11-07T02:09:36.312Z,3.69
2023-11-07T02:10:36.039Z,3.70
2023-11-07T02:11:36.186Z,3.68
2023-11-07T02:12:36.011Z,3.73
2023-11-07T02:13:36.197Z,3.68
2023-11-07T02:14:36.086Z,3.72
2023-11-07T02:15:36.192Z,3.66
2023-11-07T02:16:35.969Z,3.60
2023-11-07T02:17:36.169Z,3.58
2023-11-07T02:18:36.069Z,3.57
2023-11-07T02:19:36.157Z,3.54
2023-11-07T02:20:35.938Z,3.54
2023-11-07T02:21:36.136Z,3.57
2023-11-07T02:22:35.878Z,3.57
2023-11-07T02:23:36.266Z,3.58
2023-11-07T02:24:35.984Z,3.61
2023-11-07T02:25:35.908Z,3.61
2023-11-07T02:26:36.024Z,3.68
2023-11-07T02:27:35.854Z,3.73
2023-11-07T02:28:35.971Z,3.75
2023-11-07T02:29:35.825Z,3.76
2023-11-07T02:30:35.998Z,3.83
2023-11-07T02:31:35.846Z,3.86
2023-11-07T02:32:36.102Z,3.87
2023-11-07T02:33:35.940Z,3.88
2023-11-07T02:34:35.817Z,3.88
2023-11-07T02:35:35.772Z,3.91
2023-11-07T02:36:35.919Z,3.94
2023-11-07T02:37:35.734Z,4.02
2023-11-07T02:38:37.300Z,4.05
2023-11-07T02:39:35.695Z,4.11
2023-11-07T02:40:35.856Z,4.18
2023-11-07T02:41:35.726Z,4.26
2023-11-07T02:42:35.873Z,4.40
2023-11-07T02:43:35.670Z,4.47
2023-11-07T02:44:35.690Z,4.55
2023-11-07T02:45:35.648Z,4.58
2023-11-07T02:46:35.745Z,4.67
2023-11-07T02:47:39.837Z,4.78
2023-11-07T02:48:35.700Z,4.82
2023-11-07T02:49:35.883Z,4.89
2023-11-07T02:50:35.546Z,4.94
2023-11-07T02:51:35.680Z,4.99
2023-11-07T02:52:35.532Z,5.04
2023-11-07T02:53:35.730Z,5.09
2023-11-07T02:54:35.468Z,5.13
2023-11-07T02:55:35.662Z,5.20
2023-11-07T02:56:35.531Z,5.21
2023-11-07T02:57:35.692Z,5.31
2023-11-07T02:58:35.437Z,5.40
2023-11-07T02:59:35.694Z,5.48
2023-11-07T03:00:35.391Z,5.57
2023-11-07T03:01:35.514Z,5.71
2023-11-07T03:02:35.445Z,5.78
2023-11-07T03:03:35.648Z,5.86
2023-11-07T03:04:35.347Z,5.97
2023-11-07T03:05:35.644Z,6.03
2023-11-07T03:06:35.640Z,6.08
2023-11-07T03:07:35.371Z,6.12
2023-11-07T03:08:35.546Z,6.18
2023-11-07T03:09:35.327Z,6.18
2023-11-07T03:10:35.388Z,6.18
2023-11-07T03:11:35.372Z,6.19
2023-11-07T03:12:35.238Z,6.19
2023-11-07T03:13:35.383Z,6.17
2023-11-07T03:14:35.226Z,6.18
2023-11-07T03:15:35.445Z,6.18
2023-11-07T03:16:35.209Z,6.19
2023-11-07T03:17:35.531Z,6.18
2023-11-07T03:18:35.346Z,6.19
2023-11-07T03:19:35.420Z,6.14
2023-11-07T03:20:35.159Z,6.09
2023-11-07T03:21:35.385Z,6.04
2023-11-07T03:22:35.150Z,6.03
2023-11-07T03:23:35.403Z,6.03
2023-11-07T03:24:35.128Z,6.00
2023-11-07T03:25:35.222Z,6.00
2023-11-07T03:26:35.113Z,5.99
2023-11-07T03:27:35.174Z,6.00
2023-11-07T03:28:35.039Z,5.96
2023-11-07T03:29:35.331Z,5.94
2023-11-07T03:30:35.021Z,5.91
2023-11-07T03:31:35.118Z,5.90
2023-11-07T03:32:35.169Z,5.91
2023-11-07T03:33:35.298Z,5.90
2023-11-07T03:34:35.121Z,5.85
2023-11-07T03:35:34.971Z,5.83
2023-11-07T03:36:35.169Z,5.82
2023-11-07T03:37:34.957Z,5.76
2023-11-07T03:38:35.225Z,5.74
2023-11-07T03:39:34.914Z,5.71
2023-11-07T03:40:35.151Z,5.68
2023-11-07T03:41:34.944Z,5.64
2023-11-07T03:42:35.023Z,5.63
2023-11-07T03:43:34.870Z,5.61
2023-11-07T03:44:35.061Z,5.56
2023-11-07T03:45:34.830Z,5.51
2023-11-07T03:46:34.994Z,5.43
2023-11-07T03:47:34.906Z,5.31
2023-11-07T03:48:41.157Z,5.17
2023-11-07T03:51:35.654Z,4.67
2023-11-07T03:52:36.483Z,4.59
2023-11-07T03:53:36.677Z,4.50
2023-11-07T03:54:36.484Z,4.44
2023-11-07T03:55:36.687Z,4.45
2023-11-07T03:56:36.466Z,4.42
2023-11-07T03:57:36.505Z,4.48
2023-11-07T03:58:36.542Z,4.51
2023-11-07T03:59:36.448Z,4.62
2023-11-07T04:00:36.520Z,4.72
2023-11-07T04:01:36.369Z,4.84
2023-11-07T04:02:36.607Z,4.96
2023-11-07T04:03:42.708Z,5.03
2023-11-07T04:04:36.612Z,5.13
2023-11-07T04:05:36.382Z,5.15
2023-11-07T04:06:36.638Z,5.10
2023-11-07T04:07:36.297Z,4.88
2023-11-07T04:08:36.406Z,4.67
2023-11-07T04:09:36.280Z,4.44
2023-11-07T04:10:36.557Z,4.26
2023-11-07T04:11:36.251Z,4.08
2023-11-07T04:12:36.609Z,3.96
2023-11-07T04:13:36.219Z,3.79
2023-11-07T04:14:36.337Z,3.66
2023-11-07T04:15:36.209Z,3.55
2023-11-07T04:16:36.348Z,3.51
2023-11-07T04:17:36.322Z,3.43
2023-11-07T04:18:36.437Z,3.45
2023-11-07T04:19:36.157Z,3.45
2023-11-07T04:20:36.381Z,3.40
2023-11-07T04:21:36.149Z,3.36
2023-11-07T04:22:37.258Z,3.32
2023-11-07T04:23:36.112Z,3.47
2023-11-07T04:24:36.201Z,3.57
2023-11-07T04:25:36.057Z,3.57
2023-11-07T04:26:37.317Z,3.55
2023-11-07T04:27:36.100Z,3.54
2023-11-07T04:28:36.234Z,3.50
2023-11-07T04:29:36.139Z,3.42
2023-11-07T04:30:36.337Z,3.35
2023-11-07T04:31:35.980Z,3.33
2023-11-07T04:32:38.386Z,3.33
2023-11-07T04:33:36.091Z,3.32
2023-11-07T04:34:37.135Z,3.29
2023-11-07T04:35:36.016Z,3.26
2023-11-07T04:36:36.096Z,3.20
2023-11-07T04:37:35.905Z,3.18
2023-11-07T04:38:36.196Z,3.10
2023-11-07T04:39:35.946Z,2.89
2023-11-07T04:40:36.097Z,2.69
2023-11-07T04:41:35.871Z,2.60
2023-11-07T04:42:36.126Z,2.57
2023-11-07T04:43:35.859Z,2.54
2023-11-07T04:44:36.050Z,2.48
2023-11-07T04:45:36.033Z,2.45
2023-11-07T04:46:35.803Z,2.38
2023-11-07T04:47:36.257Z,2.31
2023-11-07T04:48:36.029Z,2.28
2023-11-07T04:49:36.108Z,2.21
2023-11-07T04:50:35.868Z,2.18
2023-11-07T04:51:35.960Z,2.16
2023-11-07T04:52:35.743Z,2.12
2023-11-07T04:53:36.018Z,1.99
2023-11-07T04:54:35.755Z,1.91
2023-11-07T04:55:35.861Z,1.90
2023-11-07T04:56:35.727Z,1.81
2023-11-07T04:57:35.815Z,1.81
2023-11-07T04:58:35.692Z,1.80
2023-11-07T04:59:35.684Z,1.79
2023-11-07T05:00:35.896Z,1.76
2023-11-07T05:01:35.614Z,1.73
2023-11-07T05:02:36.051Z,1.70
2023-11-07T05:03:39.031Z,1.72
2023-11-07T05:04:35.725Z,1.66
2023-11-07T05:05:35.743Z,1.58
2023-11-07T05:06:35.765Z,1.58
2023-11-07T05:07:35.543Z,1.54
2023-11-07T05:08:35.725Z,1.51
2023-11-07T05:09:35.524Z,1.48
2023-11-07T05:10:35.871Z,1.45
2023-11-07T05:11:36.818Z,1.47
2023-11-07T05:12:35.561Z,1.47
2023-11-07T05:13:35.769Z,1.48
2023-11-07T05:14:35.486Z,1.51
2023-11-07T05:15:35.528Z,1.52
2023-11-07T05:16:35.489Z,1.55
2023-11-07T05:17:35.633Z,1.52
2023-11-07T05:18:35.569Z,1.55
2023-11-07T05:19:35.574Z,1.54
2023-11-07T05:20:35.440Z,1.54
2023-11-07T05:21:35.707Z,1.48
2023-11-07T05:22:35.437Z,1.45
2023-11-07T05:23:35.582Z,1.40
2023-11-07T05:24:35.363Z,1.37
2023-11-07T05:25:35.484Z,1.40
2023-11-07T05:26:35.346Z,1.40
2023-11-07T05:27:35.582Z,1.44
2023-11-07T05:28:35.312Z,1.48
2023-11-07T05:29:35.597Z,1.50
2023-11-07T05:30:35.338Z,1.60
2023-11-07T05:31:35.449Z,1.66
2023-11-07T05:32:35.515Z,1.72
2023-11-07T05:33:35.307Z,1.81
2023-11-07T05:34:35.524Z,1.88
2023-11-07T05:35:35.259Z,1.99
2023-11-07T05:36:35.287Z,2.09
2023-11-07T05:37:35.205Z,2.18
2023-11-07T05:38:35.430Z,2.30
2023-11-07T05:39:35.228Z,2.35
2023-11-07T05:40:35.349Z,2.42
2023-11-07T05:41:35.175Z,2.49
2023-11-07T05:42:35.329Z,2.54
2023-11-07T05:43:35.150Z,2.63
2023-11-07T05:44:35.449Z,2.67
2023-11-07T05:45:35.125Z,2.71
2023-11-07T05:46:35.146Z,2.72
2023-11-07T05:47:35.118Z,2.72
2023-11-07T05:48:35.342Z,2.71
2023-11-07T05:49:35.060Z,2.72
2023-11-07T05:50:35.182Z,2.71
2023-11-07T05:51:35.022Z,2.71
2023-11-07T05:52:35.189Z,2.69
2023-11-07T05:53:35.193Z,2.74
2023-11-07T05:54:34.998Z,2.72
2023-11-07T05:55:35.240Z,2.72
2023-11-07T05:56:34.970Z,2.64
2023-11-07T05:57:35.012Z,2.60
2023-11-07T05:58:35.019Z,2.60
2023-11-07T05:59:34.888Z,2.59
2023-11-07T06:00:35.171Z,2.59
2023-11-07T06:01:34.928Z,2.60
2023-11-07T06:02:34.956Z,2.60
2023-11-07T06:03:34.898Z,2.56
2023-11-07T06:04:35.077Z,2.57
2023-11-07T06:05:34.874Z,2.57
2023-11-07T06:06:35.047Z,2.54
2023-11-07T06:07:34.794Z,2.54
2023-11-07T06:08:34.987Z,2.48
2023-11-07T06:09:34.782Z,2.46
2023-11-07T06:10:35.016Z,2.46
2023-11-07T06:11:34.789Z,2.53
2023-11-07T06:12:34.863Z,2.56
2023-11-07T06:13:34.721Z,2.57
2023-11-07T06:14:34.815Z,2.61
2023-11-07T06:15:34.697Z,2.54
2023-11-07T06:16:37.662Z,2.54
2023-11-07T06:17:34.723Z,2.49
2023-11-07T06:18:36.057Z,2.46
2023-11-07T06:19:34.706Z,2.48
2023-11-07T06:20:34.864Z,2.43
2023-11-07T06:21:34.628Z,2.41
2023-11-07T06:22:34.741Z,2.39
2023-11-07T06:23:34.628Z,2.39
2023-11-07T06:24:34.737Z,2.42
2023-11-07T06:25:34.570Z,2.41
2023-11-07T06:26:34.724Z,2.41
2023-11-07T06:27:34.534Z,2.43
2023-11-07T06:28:34.673Z,2.43
2023-11-07T06:29:34.568Z,2.43
2023-11-07T06:30:34.685Z,2.46
2023-11-07T06:31:34.481Z,2.45
2023-11-07T06:32:34.708Z,2.46
2023-11-07T06:33:34.611Z,2.48
2023-11-07T06:34:34.602Z,2.46
2023-11-07T06:35:34.447Z,2.48
2023-11-07T06:36:34.526Z,2.52
2023-11-07T06:37:34.440Z,2.53
2023-11-07T06:38:34.554Z,2.59
2023-11-07T06:39:34.391Z,2.72
2023-11-07T06:40:34.720Z,2.79
2023-11-07T06:41:34.348Z,2.87
2023-11-07T06:42:34.658Z,2.89
2023-11-07T06:43:34.332Z,2.89
2023-11-07T06:44:34.577Z,2.93
2023-11-07T06:45:34.411Z,2.92
2023-11-07T06:46:34.478Z,2.92
2023-11-07T06:47:34.415Z,2.93
2023-11-07T06:48:34.571Z,2.97
2023-11-07T06:49:34.399Z,3.02
2023-11-07T06:50:34.394Z,3.08
2023-11-07T06:51:34.263Z,3.14
2023-11-07T06:52:34.395Z,3.21
2023-11-07T06:53:34.212Z,3.29
2023-11-07T06:54:34.319Z,3.39
2023-11-07T06:55:40.868Z,3.43
2023-11-07T06:59:10.496Z,3.62
2023-11-07T07:00:11.623Z,3.68
2023-11-07T07:01:11.482Z,3.69
2023-11-07T07:02:11.370Z,3.70
2023-11-07T07:03:17.614Z,3.76
2023-11-07T07:04:11.589Z,3.75
2023-11-07T07:05:11.315Z,3.75
2023-11-07T07:06:11.508Z,3.78
2023-11-07T07:07:11.288Z,3.84
2023-11-07T07:08:11.447Z,3.98
2023-11-07T07:09:11.285Z,4.22
2023-11-07T07:10:11.469Z,4.41
2023-11-07T07:11:11.441Z,4.59
2023-11-07T07:12:11.234Z,4.70
2023-11-07T07:13:11.294Z,4.82
2023-11-07T07:14:11.235Z,4.88
2023-11-07T07:15:11.348Z,4.91
2023-11-07T07:16:11.307Z,4.92
2023-11-07T07:17:11.130Z,5.02
2023-11-07T07:18:11.458Z,5.09
2023-11-07T07:19:11.171Z,5.18
2023-11-07T07:20:11.338Z,5.25
2023-11-07T07:21:11.108Z,5.39
2023-11-07T07:22:11.342Z,5.53
2023-11-07T07:23:11.084Z,5.63
2023-11-07T07:24:11.370Z,5.76
2023-11-07T07:25:11.018Z,5.82
2023-11-07T07:26:11.221Z,5.90
2023-11-07T07:27:11.079Z,5.97
2023-11-07T07:28:11.255Z,6.09
2023-11-07T07:29:11.034Z,6.19
2023-11-07T07:30:11.107Z,6.04
2023-11-07T07:31:11.046Z,5.94
2023-11-07T07:32:11.132Z,5.72
2023-11-07T07:33:12.487Z,5.57
2023-11-07T07:34:11.420Z,5.49
2023-11-07T07:35:10.926Z,5.35
2023-11-07T07:36:11.127Z,5.25
2023-11-07T07:37:10.923Z,5.18
2023-11-07T07:38:11.033Z,5.10
2023-11-07T07:39:10.941Z,5.10
2023-11-07T07:40:11.042Z,5.06
2023-11-07T07:41:10.836Z,5.06
2023-11-07T07:42:11.205Z,5.06
2023-11-07T07:43:11.230Z,5.09
2023-11-07T07:44:11.077Z,5.15
2023-11-07T07:45:10.918Z,5.22
2023-11-07T07:46:11.089Z,5.33
2023-11-07T07:47:10.878Z,5.45
2023-11-07T07:48:10.822Z,5.57
2023-11-07T07:49:11.157Z,5.71
2023-11-07T07:50:10.872Z,5.85
2023-11-07T07:51:11.062Z,6.03
2023-11-07T07:52:11.391Z,6.25
2023-11-07T07:53:10.912Z,6.28
2023-11-07T07:54:27.569Z,6.31
2023-11-07T07:55:16.655Z,6.36
2023-11-07T07:56:11.050Z,6.33
2023-11-07T07:57:10.891Z,6.33
2023-11-07T07:58:10.931Z,6.38
2023-11-07T07:59:10.644Z,6.54
2023-11-07T08:00:10.944Z,6.70
2023-11-07T08:01:10.599Z,6.81
2023-11-07T08:02:10.851Z,6.95
2023-11-07T08:03:10.856Z,7.07
2023-11-07T08:04:10.795Z,7.12
2023-11-07T08:05:10.528Z,7.30
2023-11-07T08:06:10.849Z,7.37
2023-11-07T08:07:10.585Z,7.43
2023-11-07T08:08:11.459Z,7.49
2023-11-07T08:09:10.531Z,7.53
2023-11-07T08:10:10.646Z,7.63
2023-11-07T08:11:10.452Z,7.69
2023-11-07T08:12:10.744Z,7.72
2023-11-07T08:13:10.657Z,7.75
2023-11-07T08:14:10.428Z,7.79
2023-11-07T08:15:10.730Z,7.83
2023-11-07T08:16:12.502Z,7.89
2023-11-07T08:17:10.888Z,7.90
2023-11-07T08:18:10.714Z,7.92
2023-11-07T08:19:10.371Z,7.93
2023-11-07T08:20:10.516Z,7.97
2023-11-07T08:21:10.375Z,8.02
2023-11-07T08:22:10.517Z,8.04
2023-11-07T08:23:10.498Z,8.08
2023-11-07T08:24:10.346Z,8.12
2023-11-07T08:25:10.504Z,8.16
2023-11-07T08:26:10.283Z,8.23
2023-11-07T08:27:10.275Z,8.26
2023-11-07T08:28:10.380Z,8.30
2023-11-07T08:29:10.201Z,8.36
2023-11-07T08:30:10.374Z,8.43
2023-11-07T08:31:10.215Z,8.47
2023-11-07T08:32:10.471Z,8.50
2023-11-07T08:33:10.305Z,8.48
2023-11-07T08:34:10.474Z,8.50
2023-11-07T08:35:10.127Z,8.52
2023-11-07T08:36:10.560Z,8.50
2023-11-07T08:37:12.012Z,8.47
2023-11-07T08:38:10.464Z,8.47
2023-11-07T08:39:10.455Z,8.48
2023-11-07T08:40:10.158Z,8.48
2023-11-07T08:41:10.284Z,8.47
2023-11-07T08:42:10.227Z,8.45
2023-11-07T08:43:10.226Z,8.47
2023-11-07T08:44:10.253Z,8.48
2023-11-07T08:45:10.045Z,8.58
2023-11-07T08:46:10.321Z,8.62
2023-11-07T08:47:10.115Z,8.66
2023-11-07T08:48:10.398Z,8.71
2023-11-07T08:49:10.492Z,8.76
2023-11-07T08:50:09.985Z,8.81
2023-11-07T08:51:10.281Z,8.83
2023-11-07T08:52:09.933Z,8.86
2023-11-07T08:53:10.128Z,8.87
2023-11-07T08:54:10.119Z,8.86
2023-11-07T08:55:09.949Z,8.89
2023-11-07T08:56:10.199Z,8.91
2023-11-07T08:57:09.903Z,8.92
2023-11-07T08:58:10.145Z,8.91
2023-11-07T08:59:09.852Z,8.89
2023-11-07T09:00:10.360Z,8.89
2023-11-07T09:01:09.865Z,8.94
2023-11-07T09:02:10.042Z,8.96
2023-11-07T09:03:09.867Z,8.95
2023-11-07T09:04:09.992Z,8.91
2023-11-07T09:05:09.775Z,8.87
2023-11-07T09:06:10.090Z,8.86
2023-11-07T09:07:09.745Z,8.81
2023-11-07T09:08:10.000Z,8.91
2023-11-07T09:09:09.741Z,8.95
2023-11-07T09:10:10.061Z,9.04
2023-11-07T09:11:09.699Z,9.13
2023-11-07T09:12:09.955Z,9.23
2023-11-07T09:13:09.683Z,9.38
2023-11-07T09:14:09.945Z,9.54
2023-11-07T09:15:09.935Z,9.69
2023-11-07T09:16:09.625Z,9.81
2023-11-07T09:17:09.729Z,9.83
2023-11-07T09:18:09.692Z,9.99
2023-11-07T09:19:09.824Z,9.96
2023-11-07T09:20:09.585Z,9.83
2023-11-07T09:21:09.864Z,9.75
2023-11-07T09:22:09.548Z,9.64
2023-11-07T09:23:09.685Z,9.53
2023-11-07T09:24:09.622Z,9.48
2023-11-07T09:25:09.673Z,9.42
2023-11-07T09:26:09.500Z,9.33
2023-11-07T09:27:09.752Z,9.28
2023-11-07T09:28:09.486Z,9.21
2023-11-07T09:29:09.705Z,9.31
2023-11-07T09:30:09.538Z,9.36
2023-11-07T09:31:09.611Z,9.60
2023-11-07T09:32:09.457Z,9.74
2023-11-07T09:33:11.027Z,9.99
2023-11-07T09:34:09.521Z,10.25
2023-11-07T09:35:09.676Z,10.40
2023-11-07T09:36:10.248Z,10.48
2023-11-07T09:37:09.654Z,10.55
2023-11-07T09:38:09.506Z,10.53
2023-11-07T09:39:09.479Z,10.52
2023-11-07T09:40:09.358Z,10.45
2023-11-07T09:41:09.478Z,10.34
2023-11-07T09:42:09.829Z,10.29
2023-11-07T09:43:09.525Z,10.23
2023-11-07T09:44:09.428Z,10.17
2023-11-07T09:45:09.526Z,10.17
2023-11-07T09:46:09.254Z,10.20
2023-11-07T09:47:09.550Z,10.33
2023-11-07T09:48:09.279Z,10.44
2023-11-07T09:49:09.685Z,10.51
2023-11-07T09:50:09.355Z,10.56
2023-11-07T09:51:09.256Z,10.71
2023-11-07T09:52:09.193Z,10.68
2023-11-07T09:53:09.535Z,10.68
2023-11-07T09:54:09.198Z,10.63
2023-11-07T09:55:09.341Z,10.53
2023-11-07T09:56:09.346Z,10.53
2023-11-07T09:57:09.143Z,10.52
2023-11-07T09:58:15.500Z,10.52
2023-11-07T09:59:09.086Z,10.53
2023-11-07T10:00:09.342Z,10.55
2023-11-07T10:01:09.099Z,10.51
2023-11-07T10:02:09.332Z,10.45
2023-11-07T10:03:09.262Z,10.48
2023-11-07T10:04:09.277Z,10.59
2023-11-07T10:05:09.124Z,10.76
2023-11-07T10:06:09.361Z,10.97
2023-11-07T10:07:09.071Z,11.07
2023-11-07T10:08:09.321Z,11.11
2023-11-07T10:09:09.013Z,11.10
2023-11-07T10:10:09.193Z,11.06
2023-11-07T10:13:17.937Z,10.68
2023-11-07T10:14:18.650Z,10.52
2023-11-07T10:15:18.762Z,10.42
2023-11-07T10:16:19.376Z,10.41
2023-11-07T10:17:18.756Z,10.36
2023-11-07T10:18:18.723Z,10.32
2023-11-07T10:19:18.814Z,10.29
2023-11-07T10:20:18.512Z,10.30
2023-11-07T10:21:18.956Z,10.33
2023-11-07T10:22:18.474Z,10.38
2023-11-07T10:23:18.629Z,10.40
2023-11-07T10:24:18.634Z,10.38
2023-11-07T10:25:18.592Z,10.42
2023-11-07T10:26:18.487Z,10.47
2023-11-07T10:27:18.624Z,10.47
2023-11-07T10:28:20.638Z,10.53
2023-11-07T10:29:20.379Z,10.73
2023-11-07T10:30:18.476Z,11.04
2023-11-07T10:31:18.671Z,11.11
2023-11-07T10:32:18.605Z,11.07
2023-11-07T10:33:18.502Z,11.15
2023-11-07T10:34:18.636Z,11.27
2023-11-07T10:35:19.503Z,11.28
2023-11-07T10:36:18.622Z,11.32
2023-11-07T10:37:18.451Z,11.44
2023-11-07T10:38:18.473Z,11.64
2023-11-07T10:39:18.354Z,11.88
2023-11-07T10:40:18.619Z,12.14
2023-11-07T10:41:18.278Z,12.39
2023-11-07T10:42:18.524Z,12.52
2023-11-07T10:43:18.209Z,12.50
2023-11-07T10:44:18.494Z,12.59
2023-11-07T10:45:18.257Z,12.71
2023-11-07T10:46:18.636Z,12.60
2023-11-07T10:47:18.237Z,12.49
2023-11-07T10:48:18.452Z,12.37
2023-11-07T10:49:18.319Z,12.45
2023-11-07T10:50:18.389Z,12.50
2023-11-07T10:51:18.169Z,12.52
2023-11-07T10:52:18.432Z,12.56
2023-11-07T10:53:18.256Z,12.70
2023-11-07T10:54:18.116Z,12.70
2023-11-07T10:55:18.257Z,12.71
2023-11-07T10:56:18.069Z,12.79
2023-11-07T10:57:18.344Z,12.96
2023-11-07T10:58:18.258Z,12.83
2023-11-07T10:59:18.015Z,12.50
2023-11-07T11:00:18.121Z,12.16
2023-11-07T11:01:18.046Z,12.07
2023-11-07T11:02:18.102Z,11.91
2023-11-07T11:03:18.050Z,11.76
2023-11-07T11:04:17.968Z,11.72
2023-11-07T11:05:18.179Z,11.85
2023-11-07T11:06:17.968Z,11.99
2023-11-07T11:07:18.294Z,12.19
2023-11-07T11:08:17.857Z,12.24
2023-11-07T11:09:18.163Z,12.29
2023-11-07T11:10:17.874Z,12.39
2023-11-07T11:11:17.970Z,12.56
2023-11-07T11:12:17.896Z,12.74
2023-11-07T11:13:18.138Z,12.83
2023-11-07T11:14:17.788Z,12.89
2023-11-07T11:15:18.151Z,13.07
2023-11-07T11:16:17.790Z,13.11
2023-11-07T11:17:20.329Z,13.11
2023-11-07T11:18:17.867Z,12.97
2023-11-07T11:19:17.974Z,13.05
2023-11-07T11:20:17.735Z,13.00
2023-11-07T11:21:18.079Z,13.00
2023-11-07T11:22:18.620Z,13.03
2023-11-07T11:23:17.940Z,13.05
2023-11-07T11:24:17.731Z,13.11
2023-11-07T11:25:17.942Z,13.26
2023-11-07T11:26:17.705Z,13.29
2023-11-07T11:27:18.016Z,13.33
2023-11-07T11:28:17.623Z,13.44
2023-11-07T11:29:17.869Z,13.49
2023-11-07T11:30:17.683Z,13.46
2023-11-07T11:31:17.871Z,13.23
2023-11-07T11:32:17.561Z,13.11
2023-11-07T11:33:17.864Z,13.12
2023-11-07T11:34:17.720Z,13.28
2023-11-07T11:35:18.036Z,13.38
2023-11-07T11:36:17.589Z,13.20
2023-11-07T11:37:17.608Z,13.03
2023-11-07T11:38:18.109Z,12.90
2023-11-07T11:39:17.670Z,12.83
2023-11-07T11:40:17.545Z,12.54
2023-11-07T11:41:38.708Z,12.16
2023-11-07T11:42:17.597Z,12.01
2023-11-07T11:43:17.638Z,11.94
2023-11-07T11:44:17.461Z,11.75
2023-11-07T11:45:18.012Z,11.61
2023-11-07T11:46:17.451Z,11.40
2023-11-07T11:47:17.659Z,11.43
2023-11-07T11:48:17.532Z,11.40
2023-11-07T11:49:18.139Z,11.27
2023-11-07T11:50:17.546Z,11.15
2023-11-07T11:51:17.358Z,11.33
2023-11-07T11:52:17.531Z,11.61
2023-11-07T11:53:17.289Z,11.78
2023-11-07T11:54:17.802Z,11.79
2023-11-07T11:55:17.557Z,11.91
2023-11-07T11:56:17.272Z,12.02
2023-11-07T11:57:17.536Z,12.13
2023-11-07T11:58:17.627Z,12.12
2023-11-07T11:59:17.462Z,12.01
2023-11-07T12:00:17.280Z,11.76
2023-11-07T12:01:20.074Z,11.49
2023-11-07T12:02:17.214Z,11.37
2023-11-07T12:03:17.735Z,11.40
2023-11-07T12:04:17.280Z,11.55
2023-11-07T12:05:17.265Z,11.58
2023-11-07T12:06:17.271Z,11.54
2023-11-07T12:07:17.459Z,11.51
2023-11-07T12:08:17.137Z,11.55
2023-11-07T12:09:17.238Z,11.54
2023-11-07T12:10:17.084Z,11.42
2023-11-07T12:11:17.213Z,11.33
2023-11-07T12:12:17.427Z,11.18
2023-11-07T12:13:23.347Z,11.11
2023-11-07T12:14:17.032Z,11.09
2023-11-07T12:15:17.212Z,11.09
2023-11-07T12:16:17.219Z,11.04
2023-11-07T12:17:16.978Z,11.03
2023-11-07T12:18:17.368Z,11.03
2023-11-07T12:19:17.070Z,10.97
2023-11-07T12:20:17.040Z,10.92
2023-11-07T12:21:16.952Z,10.91
2023-11-07T12:22:17.194Z,10.91
2023-11-07T12:23:17.145Z,10.94
2023-11-07T12:24:17.007Z,10.94
2023-11-07T12:25:16.895Z,11.03
2023-11-07T12:26:16.991Z,11.02
2023-11-07T12:27:16.876Z,11.04
2023-11-07T12:28:17.135Z,11.02
2023-11-07T12:29:16.827Z,11.00
2023-11-07T12:30:17.031Z,11.00
2023-11-07T12:31:25.139Z,11.03
2023-11-07T12:32:16.843Z,11.09
2023-11-07T12:33:16.989Z,11.11
2023-11-07T12:34:17.283Z,11.04
2023-11-07T12:35:17.947Z,11.00
2023-11-07T12:36:16.799Z,10.97
2023-11-07T12:37:16.921Z,11.02
2023-11-07T12:38:16.747Z,11.04
2023-11-07T12:39:16.788Z,11.10
2023-11-07T12:40:16.750Z,11.09
2023-11-07T12:41:16.766Z,11.07
2023-11-07T12:42:16.824Z,11.10
2023-11-07T12:43:16.671Z,11.11
2023-11-07T12:44:16.836Z,11.03
2023-11-07T12:45:16.748Z,10.96
2023-11-07T12:46:16.824Z,10.81
2023-11-07T12:47:16.830Z,10.71
2023-11-07T12:48:16.759Z,10.66
2023-11-07T12:49:16.916Z,10.55
2023-11-07T12:50:16.577Z,10.36
2023-11-07T12:51:16.697Z,10.30
2023-11-07T12:52:16.579Z,10.23
2023-11-07T12:53:17.821Z,10.17
2023-11-07T12:54:16.566Z,10.12
2023-11-07T12:55:16.608Z,10.07
2023-11-07T12:56:16.558Z,10.05
2023-11-07T12:57:17.359Z,10.02
2023-11-07T12:58:16.524Z,9.99
2023-11-07T12:59:16.658Z,9.94
2023-11-07T13:00:16.512Z,9.96
2023-11-07T13:01:16.512Z,10.01
2023-11-07T13:02:16.438Z,10.02
2023-11-07T13:03:16.696Z,10.04
2023-11-07T13:04:16.535Z,10.04
2023-11-07T13:05:16.469Z,10.02
2023-11-07T13:06:16.405Z,10.01
2023-11-07T13:07:16.425Z,9.96
2023-11-07T13:08:16.455Z,9.97
2023-11-07T13:09:16.334Z,9.97
2023-11-07T13:10:16.540Z,9.96
2023-11-07T13:11:16.296Z,10.01
2023-11-07T13:12:16.857Z,9.99
2023-11-07T13:13:16.254Z,9.94
2023-11-07T13:14:16.389Z,9.94
2023-11-07T13:15:16.250Z,9.89
2023-11-07T13:16:16.415Z,9.86
2023-11-07T13:17:16.207Z,9.81
2023-11-07T13:18:16.594Z,9.84
2023-11-07T13:19:16.316Z,9.86
2023-11-07T13:20:16.302Z,9.86
2023-11-07T13:21:16.299Z,9.84